Glennallen, AK (99588)

10:10 AM AKDT on June 23, 2017 (GMT -0800)
Glennallen School | | Change Station

Elev 1500 ft 62.11 °N, 145.53 °W | Updated 8 seconds ago

Overcast
Overcast
58.1 °F
Feels Like 58.1 °F
N
2.0
Wind Variable Wind from ESE
Gusts 3.0 mph

Today
High -- | Low -- °F
--% Chance of Precip.
Yesterday
High -- | Low -- °F
Precip. -- in
Pressure 30.30 in
Visibility 10.0 miles
Clouds Mostly Cloudy 2800 ft
Overcast 6000 ft
Dew Point 48 °F
Humidity 68%
Rainfall 0.00 in
Snow Depth Not available.
3:50 AM 11:38 PM
Waning Crescent, 0% visible
SPECI PAGK 231808Z AUTO 00000KT 10SM BKN028 OVC060 15/08 A3030 RMK AO2 T01500083 TSNO
Pressure 30.30 in
Visibility 10.0 miles
Clouds Mostly Cloudy 2800 ft
Overcast 6000 ft
Dew Point 48 °F
Humidity 68%
Rainfall 0.00 in
Snow Depth Not available.
3:50 AM 11:38 PM
Waning Crescent, 0% visible
SPECI PAGK 231808Z AUTO 00000KT 10SM BKN028 OVC060 15/08 A3030 RMK AO2 T01500083 TSNO

Get Severe Weather Alerts

Thanks for signing up!

Be on the lookout for a verification email in your inbox.

You'll start receiving the daily forecast at 6 AM.

×

10-Day Weather Forecast

Almanac

Astronomy

Jun. 23, 2017 Rise Set
Actual Time
Civil Twilight
Nautical Twilight
Astronomical Twilight
Moon
Length of Visible Light
Length of Day
Tomorrow will be .
, % of the Moon is Illuminated

Today's Extremes

State Highs State Lows

Community

WunderPhotos

Category 6

Welcome to Category 6. This is the collective home for Weather Underground's featured writeups by Dr. Jeff Masters (right), Bob Henson (left), Chris Burt, and other regular contributors.

Nearby

Air Quality

  Air Quality AQ Index Pollutant
Not available.

Snow Depth

Station Depth Elevation

Earthquake Activity

City Distance Mag. Time & Date
Minimum magnitude displayed is 2.5.

Coastal Water Temperatures

Place Temperature

Stations

Nearby Weather Stations

Station Location Temp. Windchill Dew Point Humidity Wind Precip. Elev Updated Type
                   

Watches & Warnings

There are currently no watches in effect.